Vancouver, Washington
Current Conditions -  °F | °C
As of 2:53 AM on Monday 20 Oct 2014 (Local Time) from KVUO Reporting Station
Light Rain Light Rain  
Wind Chill: 17°   Ceiling: 8000
Heat Index: 17°   Visibility: 10mi
Dew Point: 14°   Wind: 7mph
Humidity: 84%   Direction: 110°ESE
Pressure: 29.73"   Gusts: NA
Location:  45.63°N, 122.67°W
Report Text: KVUO 200953Z AUTO 11006KT 10SM -RA OVC080 17/14 A2973 RMK AO2 RAE02B45 SLP068 P0001 T01670139 $
Loading
Personal Weather Stations






























Interactive Weather Map
Tropical Storm Tracking
New forecast layout! Learn more

10-Day Weather Forecast

Advertisements
Track Severe Weather on mobile